createdAt,value
2023-04-18T00:02:29.828Z,76.88
2023-04-18T00:05:04.191Z,76.95
2023-04-18T00:07:35.469Z,76.80
2023-04-18T00:10:07.762Z,76.81
2023-04-18T00:12:39.394Z,76.84
2023-04-18T00:15:12.882Z,76.87
2023-04-18T00:17:44.066Z,76.93
2023-04-18T00:20:15.600Z,76.87
2023-04-18T00:22:46.811Z,76.87
2023-04-18T00:25:17.976Z,76.87
2023-04-18T00:27:49.687Z,76.84
2023-04-18T00:30:21.313Z,76.74
2023-04-18T00:32:52.485Z,76.66
2023-04-18T00:35:23.626Z,76.70
2023-04-18T00:37:54.687Z,76.64
2023-04-18T00:40:24.029Z,76.56
2023-04-18T00:42:55.648Z,76.42
2023-04-18T00:45:26.722Z,76.43
2023-04-18T00:47:58.120Z,76.28
2023-04-18T00:50:29.526Z,76.20
2023-04-18T00:53:01.125Z,76.19
2023-04-18T00:55:32.638Z,76.22
2023-04-18T00:58:03.818Z,75.99
2023-04-18T01:00:35.612Z,75.84
2023-04-18T01:03:08.686Z,75.73
2023-04-18T01:05:40.755Z,75.62
2023-04-18T01:08:13.753Z,75.60
2023-04-18T01:10:44.756Z,75.76
2023-04-18T01:13:17.591Z,75.78
2023-04-18T01:15:50.643Z,75.74
2023-04-18T01:18:23.033Z,75.75
2023-04-18T01:20:57.099Z,75.84
2023-04-18T01:23:28.257Z,75.87
2023-04-18T01:25:59.342Z,75.89
2023-04-18T01:28:28.870Z,75.99
2023-04-18T01:30:59.826Z,76.16
2023-04-18T01:33:31.139Z,76.26
2023-04-18T01:36:02.214Z,76.41
2023-04-18T01:38:34.378Z,76.56
2023-04-18T01:41:05.487Z,76.82
2023-04-18T01:43:37.158Z,76.84
2023-04-18T01:46:08.303Z,77.04
2023-04-18T01:48:39.632Z,77.21
2023-04-18T01:51:10.922Z,77.34
2023-04-18T01:53:41.939Z,77.53
2023-04-18T01:56:13.022Z,77.67
2023-04-18T01:58:43.923Z,77.74
2023-04-18T02:01:13.527Z,77.82
2023-04-18T02:03:43.336Z,77.94
2023-04-18T02:06:14.675Z,78.02
2023-04-18T02:08:44.013Z,77.85
2023-04-18T02:11:14.915Z,77.92
2023-04-18T02:13:46.626Z,77.75
2023-04-18T02:16:17.637Z,77.84
2023-04-18T02:18:52.503Z,77.66
2023-04-18T02:21:24.574Z,77.66
2023-04-18T02:23:55.712Z,77.55
2023-04-18T02:26:25.323Z,77.62
2023-04-18T02:28:56.666Z,77.68
2023-04-18T02:31:27.820Z,77.68
2023-04-18T02:33:58.869Z,77.67
2023-04-18T02:36:28.716Z,77.59
2023-04-18T02:38:58.251Z,77.50
2023-04-18T02:41:27.800Z,77.60
2023-04-18T02:44:00.172Z,77.79
2023-04-18T02:46:31.133Z,77.67
2023-04-18T02:49:02.248Z,77.74
2023-04-18T02:51:32.218Z,77.79
2023-04-18T02:54:03.184Z,77.86
2023-04-18T02:56:32.670Z,77.75
2023-04-18T02:59:03.572Z,77.80
2023-04-18T03:01:33.275Z,77.96
2023-04-18T03:04:04.284Z,78.03
2023-04-18T03:06:33.676Z,77.95
2023-04-18T03:09:04.886Z,77.92
2023-04-18T03:11:35.835Z,77.94
2023-04-18T03:14:06.787Z,77.86
2023-04-18T03:16:36.236Z,77.85
2023-04-18T03:19:07.346Z,77.93
2023-04-18T03:21:38.287Z,77.97
2023-04-18T03:24:11.587Z,77.84
2023-04-18T03:26:43.419Z,77.96
2023-04-18T03:29:14.497Z,77.99
2023-04-18T03:31:46.191Z,77.86
2023-04-18T03:34:17.478Z,77.79
2023-04-18T03:36:48.650Z,77.82
2023-04-18T03:39:19.782Z,77.80
2023-04-18T03:41:52.238Z,77.57
2023-04-18T03:44:23.384Z,77.71
2023-04-18T03:46:56.180Z,77.65
2023-04-18T03:49:27.370Z,77.58
2023-04-18T03:51:58.562Z,77.63
2023-04-18T03:54:29.807Z,77.68
2023-04-18T03:57:01.164Z,77.58
2023-04-18T03:59:32.361Z,77.51
2023-04-18T04:02:03.298Z,77.79
2023-04-18T04:04:34.737Z,78.04
2023-04-18T04:07:06.268Z,78.40
2023-04-18T04:09:37.501Z,78.65
2023-04-18T04:12:09.351Z,78.74
2023-04-18T04:14:40.892Z,78.88
2023-04-18T04:17:12.259Z,79.10
2023-04-18T04:19:43.156Z,79.07
2023-04-18T04:22:12.812Z,79.36
2023-04-18T04:24:43.904Z,79.35
2023-04-18T04:27:15.082Z,79.14
2023-04-18T04:29:46.101Z,78.86
2023-04-18T04:32:17.384Z,78.65
2023-04-18T04:34:49.505Z,78.14
2023-04-18T04:37:21.551Z,77.80
2023-04-18T04:39:52.823Z,77.46
2023-04-18T04:42:25.714Z,77.61
2023-04-18T04:44:57.266Z,77.79
2023-04-18T04:47:28.596Z,77.87
2023-04-18T04:49:59.703Z,77.97
2023-04-18T04:52:32.439Z,78.05
2023-04-18T04:55:03.522Z,77.90
2023-04-18T04:57:34.630Z,78.07
2023-04-18T05:00:06.131Z,78.13
2023-04-18T05:02:37.476Z,78.32
2023-04-18T05:05:09.917Z,78.34
2023-04-18T05:07:41.400Z,78.53
2023-04-18T05:10:13.516Z,78.67
2023-04-18T05:12:44.509Z,78.54
2023-04-18T05:15:17.664Z,78.52
2023-04-18T05:17:48.648Z,78.75
2023-04-18T05:20:18.166Z,78.63
2023-04-18T05:22:49.258Z,78.58
2023-04-18T05:25:21.241Z,78.35
2023-04-18T05:27:53.199Z,78.12
2023-04-18T05:30:24.691Z,78.01
2023-04-18T05:32:55.868Z,78.07
2023-04-18T05:35:27.104Z,77.79
2023-04-18T05:37:56.467Z,77.86
2023-04-18T05:40:28.438Z,77.33
2023-04-18T05:42:59.655Z,77.37
2023-04-18T05:45:30.589Z,77.37
2023-04-18T05:48:01.699Z,77.16
2023-04-18T05:50:34.221Z,76.97
2023-04-18T05:53:03.667Z,77.24
2023-04-18T05:55:35.280Z,77.22
2023-04-18T05:58:06.659Z,77.16
2023-04-18T06:00:37.900Z,76.80
2023-04-18T06:03:10.816Z,76.36
2023-04-18T06:05:42.639Z,76.19
2023-04-18T06:08:13.875Z,76.09
2023-04-18T06:10:45.110Z,76.08
2023-04-18T06:13:16.365Z,75.88
2023-04-18T06:15:47.347Z,75.67
2023-04-18T06:18:18.605Z,75.48
2023-04-18T06:20:47.989Z,75.45
2023-04-18T06:23:19.000Z,75.35
2023-04-18T06:25:50.134Z,75.52
2023-04-18T06:28:19.586Z,75.40
2023-04-18T06:30:50.700Z,75.30
2023-04-18T06:33:21.800Z,75.34
2023-04-18T06:35:52.932Z,75.56
2023-04-18T06:38:22.276Z,75.56
2023-04-18T06:40:53.490Z,76.02
2023-04-18T06:43:24.667Z,76.36
2023-04-18T06:45:56.738Z,76.19
2023-04-18T06:48:27.971Z,76.08
2023-04-18T06:50:58.980Z,76.19
2023-04-18T06:53:28.525Z,76.12
2023-04-18T06:55:59.871Z,75.88
2023-04-18T06:58:31.186Z,76.22
2023-04-18T07:01:00.601Z,75.96
2023-04-18T07:03:34.078Z,75.66
2023-04-18T07:06:06.036Z,75.90
2023-04-18T07:08:37.125Z,76.42
2023-04-18T07:11:08.319Z,76.68
2023-04-18T07:13:39.381Z,76.27
2023-04-18T07:16:12.202Z,76.34
2023-04-18T07:18:43.191Z,75.70
2023-04-18T07:21:14.519Z,75.13
2023-04-18T07:23:45.756Z,75.33
2023-04-18T07:26:16.878Z,74.47
2023-04-18T07:28:48.068Z,74.67
2023-04-18T07:31:19.609Z,74.30
2023-04-18T07:33:51.328Z,74.38
2023-04-18T07:36:22.684Z,74.29
2023-04-18T07:38:53.887Z,74.03
2023-04-18T07:41:24.994Z,73.61
2023-04-18T07:43:56.409Z,73.13
2023-04-18T07:46:27.869Z,73.27
2023-04-18T07:48:59.094Z,72.82
2023-04-18T07:51:31.938Z,72.37
2023-04-18T07:54:03.670Z,71.59
2023-04-18T07:56:34.988Z,72.12
2023-04-18T07:59:07.224Z,71.32
2023-04-18T08:01:38.390Z,71.22
2023-04-18T08:04:10.240Z,71.87
2023-04-18T08:06:41.448Z,71.14
2023-04-18T08:09:12.624Z,71.36
2023-04-18T08:11:45.181Z,71.71
2023-04-18T08:14:16.520Z,70.53
2023-04-18T08:16:47.734Z,69.76
2023-04-18T08:19:18.674Z,69.82
2023-04-18T08:21:51.577Z,69.87
2023-04-18T08:24:22.542Z,69.39
2023-04-18T08:26:53.815Z,69.91
2023-04-18T08:29:24.626Z,68.59
2023-04-18T08:31:56.113Z,69.26
2023-04-18T08:34:28.963Z,68.05
2023-04-18T08:37:00.276Z,67.78
2023-04-18T08:39:31.902Z,68.10
2023-04-18T08:42:03.397Z,68.79
2023-04-18T08:44:35.104Z,68.68
2023-04-18T08:47:08.993Z,68.99
2023-04-18T08:49:40.118Z,69.39
2023-04-18T08:52:12.530Z,68.92
2023-04-18T08:54:47.011Z,69.12
2023-04-18T08:57:23.770Z,68.84
2023-04-18T08:59:56.876Z,69.10
2023-04-18T09:02:42.941Z,68.97
2023-04-18T09:05:17.616Z,69.17
2023-04-18T09:07:50.582Z,68.85
2023-04-18T09:10:32.711Z,68.19
2023-04-18T09:13:04.833Z,68.47
2023-04-18T09:15:35.926Z,69.13
2023-04-18T09:18:12.179Z,68.58
2023-04-18T09:20:44.746Z,68.28
2023-04-18T09:23:23.454Z,68.80
2023-04-18T09:25:54.684Z,67.62
2023-04-18T09:28:29.180Z,67.63
2023-04-18T09:31:09.217Z,66.92
2023-04-18T09:33:43.168Z,67.04
2023-04-18T09:36:22.956Z,67.15
2023-04-18T09:38:56.605Z,67.07
2023-04-18T09:41:30.580Z,66.92
2023-04-18T09:44:14.944Z,67.24
2023-04-18T09:46:47.597Z,67.18
2023-04-18T09:49:18.958Z,67.13
2023-04-18T09:51:54.682Z,67.21
2023-04-18T09:54:26.770Z,66.47
2023-04-18T09:56:58.914Z,66.64
2023-04-18T09:59:43.069Z,66.48
2023-04-18T10:02:22.198Z,66.67
2023-04-18T10:04:55.606Z,66.88
2023-04-18T10:07:28.366Z,66.80
2023-04-18T10:09:59.476Z,67.32
2023-04-18T10:12:31.382Z,67.20
2023-04-18T10:15:03.214Z,67.46
2023-04-18T10:17:56.246Z,67.65
2023-04-18T10:20:35.121Z,67.85
2023-04-18T10:23:38.623Z,68.10
2023-04-18T10:26:11.738Z,67.67
2023-04-18T10:28:56.936Z,67.41
2023-04-18T10:31:39.743Z,67.11
2023-04-18T10:34:17.601Z,67.06
2023-04-18T10:37:07.970Z,66.97
2023-04-18T10:39:56.978Z,67.26
2023-04-18T10:42:58.301Z,67.13
2023-04-18T10:45:36.574Z,67.15
2023-04-18T10:48:25.449Z,67.46
2023-04-18T10:51:15.747Z,67.45
2023-04-18T10:53:53.180Z,67.57
2023-04-18T10:56:26.302Z,67.78
2023-04-18T10:59:01.847Z,67.60
2023-04-18T11:01:36.395Z,67.30
2023-04-18T11:04:14.523Z,67.27
2023-04-18T11:06:53.254Z,67.38
2023-04-18T11:09:24.570Z,67.56
2023-04-18T11:12:08.448Z,67.97
2023-04-18T11:14:46.309Z,67.78
2023-04-18T11:17:23.615Z,67.59
2023-04-18T11:20:05.988Z,67.68
2023-04-18T11:22:46.931Z,67.42
2023-04-18T11:25:18.956Z,67.72
2023-04-18T11:27:51.931Z,67.39
2023-04-18T11:30:22.870Z,66.84
2023-04-18T11:32:54.385Z,66.62
2023-04-18T11:35:25.931Z,66.74
2023-04-18T11:37:57.375Z,66.59
2023-04-18T11:40:28.540Z,66.26
2023-04-18T11:43:01.857Z,66.50
2023-04-18T11:45:33.294Z,66.25
2023-04-18T11:48:04.681Z,66.21
2023-04-18T11:50:38.623Z,65.61
2023-04-18T11:53:09.950Z,65.58
2023-04-18T11:55:40.986Z,65.84
2023-04-18T11:58:12.122Z,65.88
2023-04-18T12:00:43.329Z,64.40
2023-04-18T12:03:19.452Z,65.20
2023-04-18T12:05:59.648Z,64.78
2023-04-18T12:08:32.403Z,63.96
2023-04-18T12:11:03.555Z,63.56
2023-04-18T12:13:36.004Z,63.88
2023-04-18T12:16:08.193Z,63.64
2023-04-18T12:18:41.978Z,63.18
2023-04-18T12:21:14.072Z,63.84
2023-04-18T12:23:46.154Z,64.95
2023-04-18T12:26:18.772Z,65.38
2023-04-18T12:28:53.945Z,64.85
2023-04-18T12:31:25.159Z,64.27
2023-04-18T12:33:56.277Z,64.53
2023-04-18T12:36:28.539Z,64.56
2023-04-18T12:38:59.742Z,64.99
2023-04-18T12:41:31.209Z,64.86
2023-04-18T12:44:02.661Z,65.26
2023-04-18T12:46:34.030Z,65.72
2023-04-18T12:49:05.324Z,65.30
2023-04-18T12:51:36.392Z,64.88
2023-04-18T12:54:07.790Z,63.96
2023-04-18T12:56:38.787Z,63.50
2023-04-18T12:59:09.619Z,63.86
2023-04-18T13:01:38.921Z,63.46
2023-04-18T13:04:12.819Z,63.72
2023-04-18T13:06:44.478Z,64.21
2023-04-18T13:09:16.772Z,64.08
2023-04-18T13:11:49.552Z,64.60
2023-04-18T13:14:21.414Z,65.09
2023-04-18T13:16:52.445Z,65.58
2023-04-18T13:19:23.704Z,66.19
2023-04-18T13:21:55.882Z,66.67
2023-04-18T13:24:27.094Z,66.92
2023-04-18T13:26:58.341Z,66.92
2023-04-18T13:29:29.661Z,67.43
2023-04-18T13:32:00.566Z,66.91
2023-04-18T13:34:32.264Z,67.16
2023-04-18T13:37:03.752Z,65.82
2023-04-18T13:39:35.602Z,65.73
2023-04-18T13:42:07.831Z,66.06
2023-04-18T13:44:39.690Z,65.18
2023-04-18T13:47:11.016Z,65.19
2023-04-18T13:49:42.239Z,64.93
2023-04-18T13:52:13.587Z,64.70
2023-04-18T13:54:44.552Z,65.16
2023-04-18T13:57:15.878Z,64.27
2023-04-18T13:59:47.196Z,64.68
2023-04-18T14:02:18.389Z,64.71
2023-04-18T14:04:49.630Z,65.43
2023-04-18T14:07:20.717Z,65.30
2023-04-18T14:09:53.741Z,65.22
2023-04-18T14:12:25.180Z,64.83
2023-04-18T14:14:56.378Z,64.78
2023-04-18T14:17:28.120Z,64.74
2023-04-18T14:19:59.213Z,64.52
2023-04-18T14:22:30.308Z,64.60
2023-04-18T14:25:01.783Z,64.87
2023-04-18T14:27:33.103Z,64.82
2023-04-18T14:30:06.692Z,64.14
2023-04-18T14:32:37.875Z,64.01
2023-04-18T14:35:11.186Z,63.80
2023-04-18T14:37:42.271Z,63.81
2023-04-18T14:40:14.803Z,63.70
2023-04-18T14:42:47.167Z,63.35
2023-04-18T14:45:18.677Z,62.31
2023-04-18T14:47:49.977Z,62.63
2023-04-18T14:50:24.222Z,62.76
2023-04-18T14:52:55.689Z,62.56
2023-04-18T14:55:27.036Z,63.06
2023-04-18T14:57:58.099Z,63.85
2023-04-18T15:00:29.682Z,63.82
2023-04-18T15:03:01.231Z,63.83
2023-04-18T15:05:32.853Z,64.53
2023-04-18T15:08:04.601Z,64.97
2023-04-18T15:10:36.057Z,65.58
2023-04-18T15:13:07.063Z,66.39
2023-04-18T15:15:39.680Z,66.96
2023-04-18T15:18:11.322Z,67.32
2023-04-18T15:20:42.371Z,67.57
2023-04-18T15:23:14.303Z,68.25
2023-04-18T15:25:46.932Z,68.66
2023-04-18T15:28:18.919Z,68.95
2023-04-18T15:30:49.805Z,69.15
2023-04-18T15:33:21.141Z,69.10
2023-04-18T15:35:52.415Z,68.99
2023-04-18T15:38:23.386Z,68.37
2023-04-18T15:40:54.365Z,68.24
2023-04-18T15:43:25.559Z,68.07
2023-04-18T15:45:56.723Z,67.86
2023-04-18T15:48:28.677Z,67.40
2023-04-18T15:51:00.000Z,66.95
2023-04-18T15:53:31.308Z,67.03
2023-04-18T15:56:02.375Z,66.61
2023-04-18T15:58:33.308Z,66.51
2023-04-18T16:01:04.857Z,66.37
2023-04-18T16:03:36.309Z,66.34
2023-04-18T16:06:08.020Z,66.28
2023-04-18T16:08:39.747Z,66.68
2023-04-18T16:11:11.289Z,66.98
2023-04-18T16:13:42.279Z,67.12
2023-04-18T16:16:13.439Z,67.46
2023-04-18T16:18:45.017Z,67.78
2023-04-18T16:21:17.509Z,68.38
2023-04-18T16:23:49.343Z,68.89
2023-04-18T16:26:20.318Z,69.27
2023-04-18T16:28:51.572Z,69.40
2023-04-18T16:31:22.592Z,69.62
2023-04-18T16:33:53.752Z,69.62
2023-04-18T16:36:26.070Z,69.63
2023-04-18T16:38:57.573Z,69.68
2023-04-18T16:41:28.558Z,69.55
2023-04-18T16:43:59.570Z,69.23
2023-04-18T16:46:32.438Z,69.12
2023-04-18T16:49:03.596Z,68.98
2023-04-18T16:51:36.295Z,68.78
2023-04-18T16:54:08.662Z,68.38
2023-04-18T16:56:39.675Z,68.26
2023-04-18T16:59:10.828Z,67.65
2023-04-18T17:01:41.933Z,67.60
2023-04-18T17:04:13.260Z,67.31
2023-04-18T17:06:44.775Z,67.38
2023-04-18T17:09:16.349Z,67.72
2023-04-18T17:11:50.664Z,68.06
2023-04-18T17:14:21.908Z,68.32
2023-04-18T17:16:53.737Z,68.28
2023-04-18T17:19:26.308Z,68.11
2023-04-18T17:21:57.318Z,67.50
2023-04-18T17:24:28.514Z,67.19
2023-04-18T17:27:01.343Z,67.32
2023-04-18T17:29:32.764Z,67.01
2023-04-18T17:32:04.199Z,67.23
2023-04-18T17:34:35.358Z,67.22
2023-04-18T17:37:06.510Z,67.26
2023-04-18T17:39:37.778Z,66.81
2023-04-18T17:42:08.965Z,66.80
2023-04-18T17:44:40.078Z,66.86
2023-04-18T17:47:11.237Z,66.85
2023-04-18T17:49:42.269Z,66.89
2023-04-18T17:52:13.649Z,67.04
2023-04-18T17:54:44.883Z,67.08
2023-04-18T17:57:16.729Z,67.46
2023-04-18T17:59:47.812Z,67.58
2023-04-18T18:02:19.031Z,67.81
2023-04-18T18:04:51.466Z,68.08
2023-04-18T18:07:22.981Z,68.29
2023-04-18T18:09:54.341Z,68.42
2023-04-18T18:12:26.368Z,68.61
2023-04-18T18:14:58.394Z,68.69
2023-04-18T18:17:30.359Z,68.94
2023-04-18T18:20:01.401Z,68.93
2023-04-18T18:22:33.534Z,69.16
2023-04-18T18:25:05.206Z,69.28
2023-04-18T18:27:36.677Z,69.32
2023-04-18T18:30:10.116Z,69.58
2023-04-18T18:32:41.340Z,69.56
2023-04-18T18:35:13.422Z,69.60
2023-04-18T18:37:44.811Z,69.72
2023-04-18T18:40:16.569Z,69.71
2023-04-18T18:42:49.439Z,69.92
2023-04-18T18:45:21.255Z,70.06
2023-04-18T18:47:52.464Z,70.18
2023-04-18T18:50:23.752Z,70.19
2023-04-18T18:52:54.878Z,70.36
2023-04-18T18:55:26.475Z,70.40
2023-04-18T18:57:57.922Z,70.42
2023-04-18T19:00:30.256Z,70.53
2023-04-18T19:03:02.034Z,70.67
2023-04-18T19:05:33.774Z,70.81
2023-04-18T19:08:06.617Z,70.87
2023-04-18T19:10:38.019Z,70.96
2023-04-18T19:13:09.275Z,70.97
2023-04-18T19:15:40.666Z,70.98
2023-04-18T19:18:12.497Z,70.92
2023-04-18T19:20:43.568Z,70.81
2023-04-18T19:23:14.822Z,70.79
2023-04-18T19:25:46.345Z,70.90
2023-04-18T19:28:18.466Z,70.87
2023-04-18T19:30:49.522Z,70.82
2023-04-18T19:33:21.299Z,70.73
2023-04-18T19:35:52.418Z,70.82
2023-04-18T19:38:23.891Z,70.78
2023-04-18T19:40:55.241Z,70.64
2023-04-18T19:43:26.633Z,71.06
2023-04-18T19:45:57.718Z,70.70
2023-04-18T19:48:29.947Z,70.79
2023-04-18T19:51:01.604Z,71.53
2023-04-18T19:53:33.666Z,71.83
2023-04-18T19:56:05.096Z,72.10
2023-04-18T19:58:44.966Z,72.17
2023-04-18T20:01:17.183Z,72.44
2023-04-18T20:03:48.929Z,72.64
2023-04-18T20:06:20.465Z,72.87
2023-04-18T20:08:51.596Z,72.94
2023-04-18T20:11:25.948Z,72.96
2023-04-18T20:13:59.369Z,73.23
2023-04-18T20:16:30.658Z,73.25
2023-04-18T20:19:01.821Z,73.57
2023-04-18T20:21:32.880Z,73.50
2023-04-18T20:24:02.168Z,73.53
2023-04-18T20:26:33.245Z,73.71
2023-04-18T20:29:05.007Z,73.76
2023-04-18T20:31:37.817Z,73.78
2023-04-18T20:34:09.893Z,73.70
2023-04-18T20:36:42.457Z,73.53
2023-04-18T20:39:14.020Z,73.85
2023-04-18T20:41:48.541Z,74.41
2023-04-18T20:44:21.047Z,74.55
2023-04-18T20:46:53.372Z,74.65
2023-04-18T20:49:24.330Z,74.50
2023-04-18T20:51:55.615Z,74.39
2023-04-18T20:54:26.946Z,74.53
2023-04-18T20:56:58.407Z,74.68
2023-04-18T20:59:31.482Z,74.66
2023-04-18T21:02:02.673Z,74.95
2023-04-18T21:04:33.964Z,75.29
2023-04-18T21:07:05.092Z,75.27
2023-04-18T21:09:37.455Z,75.51
2023-04-18T21:12:09.146Z,75.51
2023-04-18T21:14:40.494Z,75.61
2023-04-18T21:17:17.146Z,75.46
2023-04-18T21:19:49.596Z,75.71
2023-04-18T21:22:21.086Z,75.82
2023-04-18T21:24:52.298Z,75.72
2023-04-18T21:27:23.638Z,75.85
2023-04-18T21:29:54.976Z,76.10
2023-04-18T21:32:26.606Z,76.16
2023-04-18T21:34:58.030Z,76.30
2023-04-18T21:37:29.091Z,76.69
2023-04-18T21:40:00.563Z,76.70
2023-04-18T21:42:31.798Z,76.83
2023-04-18T21:45:02.890Z,76.83
2023-04-18T21:47:36.095Z,76.91
2023-04-18T21:50:09.104Z,76.91
2023-04-18T21:52:40.240Z,76.76
2023-04-18T21:55:12.224Z,76.71
2023-04-18T21:57:43.322Z,76.61
2023-04-18T22:00:16.610Z,76.61
2023-04-18T22:02:47.940Z,76.57
2023-04-18T22:05:20.193Z,76.56
2023-04-18T22:07:58.010Z,76.72
2023-04-18T22:10:30.049Z,76.74
2023-04-18T22:13:01.341Z,76.69
2023-04-18T22:15:33.038Z,76.77
2023-04-18T22:18:05.423Z,76.66
2023-04-18T22:20:37.459Z,76.67
2023-04-18T22:23:08.551Z,76.74
2023-04-18T22:25:39.869Z,76.77
2023-04-18T22:28:11.014Z,76.77
2023-04-18T22:30:42.384Z,76.96
2023-04-18T22:33:13.721Z,76.78
2023-04-18T22:35:45.306Z,76.83
2023-04-18T22:38:16.366Z,76.99
2023-04-18T22:40:47.488Z,76.91
2023-04-18T22:43:22.848Z,76.97
2023-04-18T22:45:54.298Z,76.96
2023-04-18T22:48:25.514Z,76.91
2023-04-18T22:50:56.738Z,77.00
2023-04-18T22:53:28.084Z,77.07
2023-04-18T22:55:59.974Z,77.04
2023-04-18T22:58:31.634Z,77.10
2023-04-18T23:01:03.158Z,77.04
2023-04-18T23:03:35.791Z,77.08
2023-04-18T23:06:09.277Z,77.13
2023-04-18T23:08:40.427Z,77.15
2023-04-18T23:11:11.641Z,77.18
2023-04-18T23:13:42.547Z,77.15
2023-04-18T23:16:13.717Z,77.13
2023-04-18T23:18:44.927Z,77.10
2023-04-18T23:21:17.618Z,77.19
2023-04-18T23:23:48.645Z,77.13
2023-04-18T23:26:19.780Z,77.20
2023-04-18T23:28:50.977Z,77.18
2023-04-18T23:31:22.277Z,77.33
2023-04-18T23:33:53.359Z,77.66
2023-04-18T23:36:24.442Z,77.76
2023-04-18T23:38:55.759Z,77.79
2023-04-18T23:41:26.753Z,77.92
2023-04-18T23:43:57.927Z,77.99
2023-04-18T23:46:29.195Z,78.03
2023-04-18T23:49:00.280Z,78.19
2023-04-18T23:51:29.509Z,78.40
2023-04-18T23:54:03.257Z,78.91
2023-04-18T23:56:35.203Z,79.19
2023-04-18T23:59:06.337Z,79.61
